Terminal Aerodrome Forecast
Issued by NWS Sioux Falls, SD

Home | Current Version | Previous Version | Graphics & Text | Print | Product List | Glossary Off
Versions: 1 2 3 4 5 6 7 8 9 10 11 12 13

000
FTUS43 KFSD 172320
TAFFSD
TAF
KFSD 172320Z 1800/1824 06004KT P6SM SCT200
     FM181000 11005KT 5SM BR SCT010
     FM181500 15009KT P6SM BKN015
     FM181800 16014G21KT P6SM SCT015 SCT120=

USA.gov is the U.S. government's official web portal to all federal, state and local government web resources and services.